sensor_id;sensor_type;location;lat;lon;timestamp;P1;durP1;ratioP1;P2;durP2;ratioP2
75005;SDS011;63553;51.814;4.600;2022-11-20T00:00:47;11.97;;;7.20;;
75005;SDS011;63553;51.814;4.600;2022-11-20T00:03:13;15.57;;;7.73;;
75005;SDS011;63553;51.814;4.600;2022-11-20T00:05:38;20.08;;;7.35;;
75005;SDS011;63553;51.814;4.600;2022-11-20T00:08:04;16.23;;;7.17;;
75005;SDS011;63553;51.814;4.600;2022-11-20T00:10:29;12.82;;;7.05;;
75005;SDS011;63553;51.814;4.600;2022-11-20T00:12:55;13.50;;;7.25;;
75005;SDS011;63553;51.814;4.600;2022-11-20T00:15:20;10.03;;;6.90;;
75005;SDS011;63553;51.814;4.600;2022-11-20T00:17:45;12.63;;;7.03;;
75005;SDS011;63553;51.814;4.600;2022-11-20T00:20:11;14.77;;;7.20;;
75005;SDS011;63553;51.814;4.600;2022-11-20T00:22:37;16.27;;;7.63;;
75005;SDS011;63553;51.814;4.600;2022-11-20T00:25:03;12.00;;;6.35;;
75005;SDS011;63553;51.814;4.600;2022-11-20T00:27:28;16.80;;;7.45;;
75005;SDS011;63553;51.814;4.600;2022-11-20T00:29:54;15.57;;;7.23;;
75005;SDS011;63553;51.814;4.600;2022-11-20T00:32:19;14.03;;;7.57;;
75005;SDS011;63553;51.814;4.600;2022-11-20T00:34:44;14.40;;;6.73;;
75005;SDS011;63553;51.814;4.600;2022-11-20T00:37:10;10.83;;;6.27;;
75005;SDS011;63553;51.814;4.600;2022-11-20T00:39:35;13.67;;;7.57;;
75005;SDS011;63553;51.814;4.600;2022-11-20T00:42:00;16.63;;;8.00;;
75005;SDS011;63553;51.814;4.600;2022-11-20T00:44:25;15.93;;;7.63;;
75005;SDS011;63553;51.814;4.600;2022-11-20T00:46:51;14.30;;;7.23;;
75005;SDS011;63553;51.814;4.600;2022-11-20T00:49:16;13.93;;;6.90;;
75005;SDS011;63553;51.814;4.600;2022-11-20T00:51:41;16.10;;;7.93;;
75005;SDS011;63553;51.814;4.600;2022-11-20T00:54:07;13.10;;;6.82;;
75005;SDS011;63553;51.814;4.600;2022-11-20T00:56:32;15.27;;;7.67;;
75005;SDS011;63553;51.814;4.600;2022-11-20T00:58:59;12.87;;;7.10;;
75005;SDS011;63553;51.814;4.600;2022-11-20T01:01:25;11.10;;;6.88;;
75005;SDS011;63553;51.814;4.600;2022-11-20T01:03:51;14.25;;;6.72;;
75005;SDS011;63553;51.814;4.600;2022-11-20T01:06:19;14.27;;;7.25;;
75005;SDS011;63553;51.814;4.600;2022-11-20T01:08:46;15.95;;;6.88;;
75005;SDS011;63553;51.814;4.600;2022-11-20T01:11:13;13.48;;;6.90;;
75005;SDS011;63553;51.814;4.600;2022-11-20T01:13:40;17.20;;;7.25;;
75005;SDS011;63553;51.814;4.600;2022-11-20T01:16:07;17.08;;;7.38;;
75005;SDS011;63553;51.814;4.600;2022-11-20T01:18:35;11.88;;;6.75;;
75005;SDS011;63553;51.814;4.600;2022-11-20T01:21:02;12.77;;;7.07;;
75005;SDS011;63553;51.814;4.600;2022-11-20T01:23:33;12.00;;;7.28;;
75005;SDS011;63553;51.814;4.600;2022-11-20T01:26:00;14.60;;;7.43;;
75005;SDS011;63553;51.814;4.600;2022-11-20T01:28:28;14.63;;;7.40;;
75005;SDS011;63553;51.814;4.600;2022-11-20T01:30:53;14.73;;;6.97;;
75005;SDS011;63553;51.814;4.600;2022-11-20T01:33:19;14.80;;;7.33;;
75005;SDS011;63553;51.814;4.600;2022-11-20T01:35:44;11.80;;;6.37;;
75005;SDS011;63553;51.814;4.600;2022-11-20T01:38:09;13.53;;;6.60;;
75005;SDS011;63553;51.814;4.600;2022-11-20T01:40:35;12.40;;;6.47;;
75005;SDS011;63553;51.814;4.600;2022-11-20T01:43:33;12.63;;;6.30;;
75005;SDS011;63553;51.814;4.600;2022-11-20T01:48:26;14.05;;;6.72;;
75005;SDS011;63553;51.814;4.600;2022-11-20T01:51:23;13.27;;;6.85;;
75005;SDS011;63553;51.814;4.600;2022-11-20T01:53:58;12.50;;;6.57;;
75005;SDS011;63553;51.814;4.600;2022-11-20T01:56:28;13.95;;;6.75;;
75005;SDS011;63553;51.814;4.600;2022-11-20T01:58:56;12.43;;;7.35;;
75005;SDS011;63553;51.814;4.600;2022-11-20T02:01:25;13.15;;;6.57;;
75005;SDS011;63553;51.814;4.600;2022-11-20T02:03:51;14.55;;;7.00;;
75005;SDS011;63553;51.814;4.600;2022-11-20T02:06:24;12.00;;;6.47;;
75005;SDS011;63553;51.814;4.600;2022-11-20T02:08:53;13.93;;;6.55;;
75005;SDS011;63553;51.814;4.600;2022-11-20T02:11:19;14.38;;;6.97;;
75005;SDS011;63553;51.814;4.600;2022-11-20T02:13:44;15.43;;;7.65;;
75005;SDS011;63553;51.814;4.600;2022-11-20T02:16:24;14.23;;;6.88;;
75005;SDS011;63553;51.814;4.600;2022-11-20T02:18:51;13.07;;;6.55;;
75005;SDS011;63553;51.814;4.600;2022-11-20T02:21:27;15.20;;;7.72;;
75005;SDS011;63553;51.814;4.600;2022-11-20T02:26:27;12.73;;;7.30;;
75005;SDS011;63553;51.814;4.600;2022-11-20T02:28:55;13.60;;;6.72;;
75005;SDS011;63553;51.814;4.600;2022-11-20T02:31:21;11.75;;;6.82;;
75005;SDS011;63553;51.814;4.600;2022-11-20T02:33:46;15.68;;;6.90;;
75005;SDS011;63553;51.814;4.600;2022-11-20T02:36:13;12.53;;;6.97;;
75005;SDS011;63553;51.814;4.600;2022-11-20T02:38:41;16.17;;;7.05;;
75005;SDS011;63553;51.814;4.600;2022-11-20T02:41:08;14.10;;;7.30;;
75005;SDS011;63553;51.814;4.600;2022-11-20T02:43:33;13.20;;;6.87;;
75005;SDS011;63553;51.814;4.600;2022-11-20T02:45:58;15.40;;;7.53;;
75005;SDS011;63553;51.814;4.600;2022-11-20T02:48:23;14.93;;;6.50;;
75005;SDS011;63553;51.814;4.600;2022-11-20T02:50:49;14.43;;;6.80;;
75005;SDS011;63553;51.814;4.600;2022-11-20T02:53:14;14.77;;;7.50;;
75005;SDS011;63553;51.814;4.600;2022-11-20T02:55:39;15.23;;;7.50;;
75005;SDS011;63553;51.814;4.600;2022-11-20T02:58:05;14.30;;;7.47;;
75005;SDS011;63553;51.814;4.600;2022-11-20T03:00:30;15.40;;;7.10;;
75005;SDS011;63553;51.814;4.600;2022-11-20T03:02:56;15.05;;;7.10;;
75005;SDS011;63553;51.814;4.600;2022-11-20T03:05:22;14.32;;;7.60;;
75005;SDS011;63553;51.814;4.600;2022-11-20T03:07:47;15.32;;;8.07;;
75005;SDS011;63553;51.814;4.600;2022-11-20T03:10:13;12.70;;;7.38;;
75005;SDS011;63553;51.814;4.600;2022-11-20T03:12:38;16.73;;;8.77;;
75005;SDS011;63553;51.814;4.600;2022-11-20T03:15:03;15.13;;;8.17;;
75005;SDS011;63553;51.814;4.600;2022-11-20T03:17:29;16.55;;;8.30;;
75005;SDS011;63553;51.814;4.600;2022-11-20T03:19:55;19.95;;;8.13;;
75005;SDS011;63553;51.814;4.600;2022-11-20T03:22:21;15.20;;;7.82;;
75005;SDS011;63553;51.814;4.600;2022-11-20T03:24:46;17.70;;;7.60;;
75005;SDS011;63553;51.814;4.600;2022-11-20T03:27:12;17.60;;;8.23;;
75005;SDS011;63553;51.814;4.600;2022-11-20T03:29:37;14.57;;;7.50;;
75005;SDS011;63553;51.814;4.600;2022-11-20T03:32:02;14.97;;;7.10;;
75005;SDS011;63553;51.814;4.600;2022-11-20T03:34:28;14.45;;;7.25;;
75005;SDS011;63553;51.814;4.600;2022-11-20T03:36:53;15.37;;;7.20;;
75005;SDS011;63553;51.814;4.600;2022-11-20T03:39:18;15.30;;;7.23;;
75005;SDS011;63553;51.814;4.600;2022-11-20T03:41:44;14.50;;;7.47;;
75005;SDS011;63553;51.814;4.600;2022-11-20T03:44:10;19.42;;;7.97;;
75005;SDS011;63553;51.814;4.600;2022-11-20T03:46:36;16.77;;;9.02;;
75005;SDS011;63553;51.814;4.600;2022-11-20T03:49:02;14.80;;;7.57;;
75005;SDS011;63553;51.814;4.600;2022-11-20T03:51:30;15.40;;;7.57;;
75005;SDS011;63553;51.814;4.600;2022-11-20T03:53:58;15.68;;;7.47;;
75005;SDS011;63553;51.814;4.600;2022-11-20T03:56:27;15.93;;;7.65;;
75005;SDS011;63553;51.814;4.600;2022-11-20T03:58:54;11.60;;;6.60;;
75005;SDS011;63553;51.814;4.600;2022-11-20T04:01:21;14.40;;;7.78;;
75005;SDS011;63553;51.814;4.600;2022-11-20T04:03:57;14.55;;;7.32;;
75005;SDS011;63553;51.814;4.600;2022-11-20T04:06:24;12.70;;;6.78;;
75005;SDS011;63553;51.814;4.600;2022-11-20T04:08:56;13.18;;;6.75;;
75005;SDS011;63553;51.814;4.600;2022-11-20T04:11:26;14.82;;;7.57;;
75005;SDS011;63553;51.814;4.600;2022-11-20T04:13:55;18.58;;;7.40;;
75005;SDS011;63553;51.814;4.600;2022-11-20T04:16:22;13.52;;;7.50;;
75005;SDS011;63553;51.814;4.600;2022-11-20T04:18:52;17.23;;;7.78;;
75005;SDS011;63553;51.814;4.600;2022-11-20T04:21:19;14.27;;;8.20;;
75005;SDS011;63553;51.814;4.600;2022-11-20T04:23:44;15.47;;;8.17;;
75005;SDS011;63553;51.814;4.600;2022-11-20T04:26:11;16.20;;;7.87;;
75005;SDS011;63553;51.814;4.600;2022-11-20T04:28:37;14.30;;;6.80;;
75005;SDS011;63553;51.814;4.600;2022-11-20T04:31:10;13.55;;;7.57;;
75005;SDS011;63553;51.814;4.600;2022-11-20T04:33:37;18.10;;;7.75;;
75005;SDS011;63553;51.814;4.600;2022-11-20T04:36:04;15.63;;;7.65;;
75005;SDS011;63553;51.814;4.600;2022-11-20T04:38:37;15.55;;;7.50;;
75005;SDS011;63553;51.814;4.600;2022-11-20T04:41:03;13.57;;;7.47;;
75005;SDS011;63553;51.814;4.600;2022-11-20T04:43:30;12.43;;;7.15;;
75005;SDS011;63553;51.814;4.600;2022-11-20T04:45:57;13.23;;;7.20;;
75005;SDS011;63553;51.814;4.600;2022-11-20T04:48:23;15.50;;;7.70;;
75005;SDS011;63553;51.814;4.600;2022-11-20T04:50:49;17.50;;;7.45;;
75005;SDS011;63553;51.814;4.600;2022-11-20T04:53:15;14.55;;;7.38;;
75005;SDS011;63553;51.814;4.600;2022-11-20T04:55:40;12.67;;;6.93;;
75005;SDS011;63553;51.814;4.600;2022-11-20T04:58:05;13.30;;;7.67;;
75005;SDS011;63553;51.814;4.600;2022-11-20T05:00:31;15.90;;;7.70;;
75005;SDS011;63553;51.814;4.600;2022-11-20T05:02:56;17.55;;;7.93;;
75005;SDS011;63553;51.814;4.600;2022-11-20T05:05:22;12.53;;;7.20;;
75005;SDS011;63553;51.814;4.600;2022-11-20T05:07:47;14.83;;;7.40;;
75005;SDS011;63553;51.814;4.600;2022-11-20T05:10:12;13.27;;;7.23;;
75005;SDS011;63553;51.814;4.600;2022-11-20T05:12:38;14.68;;;6.93;;
75005;SDS011;63553;51.814;4.600;2022-11-20T05:15:03;13.37;;;6.83;;
75005;SDS011;63553;51.814;4.600;2022-11-20T05:17:29;11.70;;;7.22;;
75005;SDS011;63553;51.814;4.600;2022-11-20T05:19:54;14.77;;;7.73;;
75005;SDS011;63553;51.814;4.600;2022-11-20T05:22:19;11.50;;;7.07;;
75005;SDS011;63553;51.814;4.600;2022-11-20T05:24:45;16.30;;;7.67;;
75005;SDS011;63553;51.814;4.600;2022-11-20T05:27:10;14.07;;;7.33;;
75005;SDS011;63553;51.814;4.600;2022-11-20T05:29:35;11.75;;;6.88;;
75005;SDS011;63553;51.814;4.600;2022-11-20T05:32:01;14.57;;;7.17;;
75005;SDS011;63553;51.814;4.600;2022-11-20T05:34:26;12.07;;;7.23;;
75005;SDS011;63553;51.814;4.600;2022-11-20T05:36:51;16.67;;;7.47;;
75005;SDS011;63553;51.814;4.600;2022-11-20T05:39:17;14.13;;;6.83;;
75005;SDS011;63553;51.814;4.600;2022-11-20T05:41:42;13.83;;;7.33;;
75005;SDS011;63553;51.814;4.600;2022-11-20T05:44:10;12.37;;;6.67;;
75005;SDS011;63553;51.814;4.600;2022-11-20T05:46:35;13.73;;;7.35;;
75005;SDS011;63553;51.814;4.600;2022-11-20T05:49:00;13.30;;;7.07;;
75005;SDS011;63553;51.814;4.600;2022-11-20T05:51:26;13.63;;;7.60;;
75005;SDS011;63553;51.814;4.600;2022-11-20T05:53:52;12.10;;;6.95;;
75005;SDS011;63553;51.814;4.600;2022-11-20T05:56:19;13.30;;;6.60;;
75005;SDS011;63553;51.814;4.600;2022-11-20T05:58:45;14.88;;;7.45;;
75005;SDS011;63553;51.814;4.600;2022-11-20T06:01:13;16.85;;;7.47;;
75005;SDS011;63553;51.814;4.600;2022-11-20T06:03:41;13.23;;;7.07;;
75005;SDS011;63553;51.814;4.600;2022-11-20T06:06:08;14.80;;;7.25;;
75005;SDS011;63553;51.814;4.600;2022-11-20T06:08:34;13.90;;;7.10;;
75005;SDS011;63553;51.814;4.600;2022-11-20T06:11:07;14.00;;;7.60;;
75005;SDS011;63553;51.814;4.600;2022-11-20T06:13:34;16.73;;;8.20;;
75005;SDS011;63553;51.814;4.600;2022-11-20T06:16:00;13.75;;;7.90;;
75005;SDS011;63553;51.814;4.600;2022-11-20T06:18:27;15.52;;;7.60;;
75005;SDS011;63553;51.814;4.600;2022-11-20T06:21:00;18.15;;;7.93;;
75005;SDS011;63553;51.814;4.600;2022-11-20T06:23:27;17.13;;;8.55;;
75005;SDS011;63553;51.814;4.600;2022-11-20T06:25:53;16.05;;;7.57;;
75005;SDS011;63553;51.814;4.600;2022-11-20T06:28:19;15.98;;;8.00;;
75005;SDS011;63553;51.814;4.600;2022-11-20T06:30:44;17.83;;;8.00;;
75005;SDS011;63553;51.814;4.600;2022-11-20T06:33:10;15.35;;;7.65;;
75005;SDS011;63553;51.814;4.600;2022-11-20T06:35:36;14.00;;;7.77;;
75005;SDS011;63553;51.814;4.600;2022-11-20T06:38:01;16.57;;;7.63;;
75005;SDS011;63553;51.814;4.600;2022-11-20T06:40:26;18.93;;;7.87;;
75005;SDS011;63553;51.814;4.600;2022-11-20T06:42:53;15.03;;;7.73;;
75005;SDS011;63553;51.814;4.600;2022-11-20T06:45:18;15.50;;;8.00;;
75005;SDS011;63553;51.814;4.600;2022-11-20T06:47:44;15.70;;;7.93;;
75005;SDS011;63553;51.814;4.600;2022-11-20T06:50:09;21.17;;;8.50;;
75005;SDS011;63553;51.814;4.600;2022-11-20T06:52:34;17.90;;;8.60;;
75005;SDS011;63553;51.814;4.600;2022-11-20T06:55:00;18.30;;;8.30;;
75005;SDS011;63553;51.814;4.600;2022-11-20T06:57:25;16.03;;;8.00;;
75005;SDS011;63553;51.814;4.600;2022-11-20T06:59:50;13.80;;;7.40;;
75005;SDS011;63553;51.814;4.600;2022-11-20T07:02:15;16.10;;;8.10;;
75005;SDS011;63553;51.814;4.600;2022-11-20T07:04:41;17.00;;;8.10;;
75005;SDS011;63553;51.814;4.600;2022-11-20T07:07:06;17.80;;;8.67;;
75005;SDS011;63553;51.814;4.600;2022-11-20T07:09:32;17.55;;;7.95;;
75005;SDS011;63553;51.814;4.600;2022-11-20T07:11:58;15.07;;;8.13;;
75005;SDS011;63553;51.814;4.600;2022-11-20T07:14:24;15.20;;;7.85;;
75005;SDS011;63553;51.814;4.600;2022-11-20T07:16:49;15.38;;;8.10;;
75005;SDS011;63553;51.814;4.600;2022-11-20T07:19:14;17.37;;;8.57;;
75005;SDS011;63553;51.814;4.600;2022-11-20T07:21:40;13.70;;;7.90;;
75005;SDS011;63553;51.814;4.600;2022-11-20T07:24:05;16.40;;;8.10;;
75005;SDS011;63553;51.814;4.600;2022-11-20T07:26:30;17.92;;;8.55;;
75005;SDS011;63553;51.814;4.600;2022-11-20T07:28:56;18.57;;;8.63;;
75005;SDS011;63553;51.814;4.600;2022-11-20T07:31:21;15.93;;;8.43;;
75005;SDS011;63553;51.814;4.600;2022-11-20T07:33:46;16.83;;;8.48;;
75005;SDS011;63553;51.814;4.600;2022-11-20T07:36:12;19.20;;;9.17;;
75005;SDS011;63553;51.814;4.600;2022-11-20T07:38:37;17.57;;;8.73;;
75005;SDS011;63553;51.814;4.600;2022-11-20T07:41:03;15.68;;;8.45;;
75005;SDS011;63553;51.814;4.600;2022-11-20T07:43:28;17.38;;;8.95;;
75005;SDS011;63553;51.814;4.600;2022-11-20T07:45:57;17.60;;;8.32;;
75005;SDS011;63553;51.814;4.600;2022-11-20T07:48:24;16.88;;;8.43;;
75005;SDS011;63553;51.814;4.600;2022-11-20T07:50:52;16.77;;;8.93;;
75005;SDS011;63553;51.814;4.600;2022-11-20T07:53:18;15.10;;;8.25;;
75005;SDS011;63553;51.814;4.600;2022-11-20T07:55:45;20.30;;;10.20;;
75005;SDS011;63553;51.814;4.600;2022-11-20T07:58:11;17.77;;;8.73;;
75005;SDS011;63553;51.814;4.600;2022-11-20T08:00:37;16.63;;;9.33;;
75005;SDS011;63553;51.814;4.600;2022-11-20T08:03:03;16.67;;;8.53;;
75005;SDS011;63553;51.814;4.600;2022-11-20T08:05:29;16.10;;;8.85;;
75005;SDS011;63553;51.814;4.600;2022-11-20T08:07:54;17.98;;;8.48;;
75005;SDS011;63553;51.814;4.600;2022-11-20T08:10:20;16.43;;;8.07;;
75005;SDS011;63553;51.814;4.600;2022-11-20T08:12:46;14.27;;;7.87;;
75005;SDS011;63553;51.814;4.600;2022-11-20T08:15:31;16.33;;;8.57;;
75005;SDS011;63553;51.814;4.600;2022-11-20T08:18:01;17.48;;;8.45;;
75005;SDS011;63553;51.814;4.600;2022-11-20T08:20:36;16.92;;;8.80;;
75005;SDS011;63553;51.814;4.600;2022-11-20T08:23:06;15.68;;;8.32;;
75005;SDS011;63553;51.814;4.600;2022-11-20T08:25:33;19.80;;;8.95;;
75005;SDS011;63553;51.814;4.600;2022-11-20T08:28:00;14.43;;;8.90;;
75005;SDS011;63553;51.814;4.600;2022-11-20T08:30:27;18.65;;;9.05;;
75005;SDS011;63553;51.814;4.600;2022-11-20T08:32:53;17.33;;;8.60;;
75005;SDS011;63553;51.814;4.600;2022-11-20T08:35:19;15.38;;;8.65;;
75005;SDS011;63553;51.814;4.600;2022-11-20T08:37:47;17.20;;;9.43;;
75005;SDS011;63553;51.814;4.600;2022-11-20T08:40:13;18.00;;;9.25;;
75005;SDS011;63553;51.814;4.600;2022-11-20T08:42:49;16.70;;;9.05;;
75005;SDS011;63553;51.814;4.600;2022-11-20T08:45:15;16.63;;;9.15;;
75005;SDS011;63553;51.814;4.600;2022-11-20T08:47:42;19.38;;;9.43;;
75005;SDS011;63553;51.814;4.600;2022-11-20T08:50:11;18.88;;;9.68;;
75005;SDS011;63553;51.814;4.600;2022-11-20T08:52:38;20.80;;;9.98;;
75005;SDS011;63553;51.814;4.600;2022-11-20T08:55:03;16.58;;;9.45;;
75005;SDS011;63553;51.814;4.600;2022-11-20T08:57:33;18.20;;;9.90;;
75005;SDS011;63553;51.814;4.600;2022-11-20T08:59:59;19.08;;;9.23;;
75005;SDS011;63553;51.814;4.600;2022-11-20T09:02:25;20.30;;;9.20;;
75005;SDS011;63553;51.814;4.600;2022-11-20T09:04:50;17.75;;;9.60;;
75005;SDS011;63553;51.814;4.600;2022-11-20T09:07:16;20.70;;;10.10;;
75005;SDS011;63553;51.814;4.600;2022-11-20T09:09:41;18.33;;;9.80;;
75005;SDS011;63553;51.814;4.600;2022-11-20T09:12:06;22.53;;;9.70;;
75005;SDS011;63553;51.814;4.600;2022-11-20T09:14:32;18.15;;;9.18;;
75005;SDS011;63553;51.814;4.600;2022-11-20T09:16:58;16.23;;;8.70;;
75005;SDS011;63553;51.814;4.600;2022-11-20T09:19:24;20.60;;;9.63;;
75005;SDS011;63553;51.814;4.600;2022-11-20T09:21:49;21.45;;;10.30;;
75005;SDS011;63553;51.814;4.600;2022-11-20T09:24:15;18.30;;;9.52;;
75005;SDS011;63553;51.814;4.600;2022-11-20T09:26:40;19.77;;;9.97;;
75005;SDS011;63553;51.814;4.600;2022-11-20T09:29:05;16.00;;;8.80;;
75005;SDS011;63553;51.814;4.600;2022-11-20T09:31:31;17.23;;;9.37;;
75005;SDS011;63553;51.814;4.600;2022-11-20T09:33:57;17.80;;;9.07;;
75005;SDS011;63553;51.814;4.600;2022-11-20T09:36:22;21.20;;;10.90;;
75005;SDS011;63553;51.814;4.600;2022-11-20T09:38:48;21.75;;;10.98;;
75005;SDS011;63553;51.814;4.600;2022-11-20T09:41:19;19.48;;;10.18;;
75005;SDS011;63553;51.814;4.600;2022-11-20T09:50:41;19.00;;;9.93;;
75005;SDS011;63553;51.814;4.600;2022-11-20T09:55:46;19.50;;;9.35;;
75005;SDS011;63553;51.814;4.600;2022-11-20T09:58:14;24.27;;;11.00;;
75005;SDS011;63553;51.814;4.600;2022-11-20T10:00:46;20.63;;;10.43;;
75005;SDS011;63553;51.814;4.600;2022-11-20T10:03:19;18.33;;;9.90;;
75005;SDS011;63553;51.814;4.600;2022-11-20T10:05:56;19.83;;;10.38;;
75005;SDS011;63553;51.814;4.600;2022-11-20T10:08:30;17.80;;;9.48;;
75005;SDS011;63553;51.814;4.600;2022-11-20T10:29:57;25.05;;;11.68;;
75005;SDS011;63553;51.814;4.600;2022-11-20T10:32:40;26.52;;;11.63;;
75005;SDS011;63553;51.814;4.600;2022-11-20T10:35:22;24.73;;;11.68;;
75005;SDS011;63553;51.814;4.600;2022-11-20T10:37:56;26.83;;;12.60;;
75005;SDS011;63553;51.814;4.600;2022-11-20T10:40:27;24.80;;;11.90;;
75005;SDS011;63553;51.814;4.600;2022-11-20T10:45:49;28.63;;;12.32;;
75005;SDS011;63553;51.814;4.600;2022-11-20T10:48:27;27.02;;;12.05;;
75005;SDS011;63553;51.814;4.600;2022-11-20T10:51:03;25.48;;;12.15;;
75005;SDS011;63553;51.814;4.600;2022-11-20T11:01:39;25.92;;;11.82;;
75005;SDS011;63553;51.814;4.600;2022-11-20T11:04:20;34.80;;;12.85;;
75005;SDS011;63553;51.814;4.600;2022-11-20T11:06:58;27.38;;;10.95;;
75005;SDS011;63553;51.814;4.600;2022-11-20T11:09:54;21.75;;;10.73;;
75005;SDS011;63553;51.814;4.600;2022-11-20T11:12:21;26.92;;;12.60;;
75005;SDS011;63553;51.814;4.600;2022-11-20T11:14:51;27.23;;;12.05;;
75005;SDS011;63553;51.814;4.600;2022-11-20T11:17:19;29.83;;;12.48;;
75005;SDS011;63553;51.814;4.600;2022-11-20T11:22:43;24.58;;;11.32;;
75005;SDS011;63553;51.814;4.600;2022-11-20T11:25:55;28.85;;;12.30;;
75005;SDS011;63553;51.814;4.600;2022-11-20T11:28:19;22.17;;;10.98;;
75005;SDS011;63553;51.814;4.600;2022-11-20T11:30:46;21.63;;;10.98;;
75005;SDS011;63553;51.814;4.600;2022-11-20T11:33:24;23.48;;;10.82;;
75005;SDS011;63553;51.814;4.600;2022-11-20T11:35:54;23.25;;;10.35;;
75005;SDS011;63553;51.814;4.600;2022-11-20T11:38:28;23.77;;;11.50;;
75005;SDS011;63553;51.814;4.600;2022-11-20T11:41:05;22.15;;;10.98;;
75005;SDS011;63553;51.814;4.600;2022-11-20T11:43:34;26.55;;;11.00;;
75005;SDS011;63553;51.814;4.600;2022-11-20T11:53:58;22.30;;;11.15;;
75005;SDS011;63553;51.814;4.600;2022-11-20T11:56:24;23.75;;;11.65;;
75005;SDS011;63553;51.814;4.600;2022-11-20T11:58:51;26.67;;;11.93;;
75005;SDS011;63553;51.814;4.600;2022-11-20T12:06:39;24.88;;;11.82;;
75005;SDS011;63553;51.814;4.600;2022-11-20T12:09:09;25.20;;;11.32;;
75005;SDS011;63553;51.814;4.600;2022-11-20T12:16:58;28.27;;;12.35;;
75005;SDS011;63553;51.814;4.600;2022-11-20T12:19:26;24.38;;;11.13;;
75005;SDS011;63553;51.814;4.600;2022-11-20T12:27:49;29.48;;;11.68;;
75005;SDS011;63553;51.814;4.600;2022-11-20T12:30:23;25.83;;;12.07;;
75005;SDS011;63553;51.814;4.600;2022-11-20T12:50:12;31.50;;;14.02;;
75005;SDS011;63553;51.814;4.600;2022-11-20T12:58:53;31.15;;;13.70;;
75005;SDS011;63553;51.814;4.600;2022-11-20T13:01:24;32.10;;;13.13;;
75005;SDS011;63553;51.814;4.600;2022-11-20T13:04:12;39.20;;;14.85;;
75005;SDS011;63553;51.814;4.600;2022-11-20T13:06:39;37.58;;;15.40;;
75005;SDS011;63553;51.814;4.600;2022-11-20T13:09:07;38.58;;;14.07;;
75005;SDS011;63553;51.814;4.600;2022-11-20T13:19:58;39.42;;;15.27;;
75005;SDS011;63553;51.814;4.600;2022-11-20T13:22:25;32.92;;;13.43;;
75005;SDS011;63553;51.814;4.600;2022-11-20T13:24:54;38.28;;;14.93;;
75005;SDS011;63553;51.814;4.600;2022-11-20T13:27:21;39.00;;;14.98;;
75005;SDS011;63553;51.814;4.600;2022-11-20T13:32:48;38.72;;;15.35;;
75005;SDS011;63553;51.814;4.600;2022-11-20T13:38:01;39.15;;;15.88;;
75005;SDS011;63553;51.814;4.600;2022-11-20T13:40:36;43.85;;;15.30;;
75005;SDS011;63553;51.814;4.600;2022-11-20T13:48:26;37.83;;;15.63;;
75005;SDS011;63553;51.814;4.600;2022-11-20T13:56:50;37.40;;;15.25;;
75005;SDS011;63553;51.814;4.600;2022-11-20T14:01:52;35.23;;;15.20;;
75005;SDS011;63553;51.814;4.600;2022-11-20T14:04:21;38.17;;;15.05;;
75005;SDS011;63553;51.814;4.600;2022-11-20T14:07:01;34.75;;;15.32;;
75005;SDS011;63553;51.814;4.600;2022-11-20T14:09:30;38.15;;;15.40;;
75005;SDS011;63553;51.814;4.600;2022-11-20T14:11:58;42.03;;;17.52;;
75005;SDS011;63553;51.814;4.600;2022-11-20T14:14:25;42.20;;;16.73;;
75005;SDS011;63553;51.814;4.600;2022-11-20T14:16:53;38.58;;;16.00;;
75005;SDS011;63553;51.814;4.600;2022-11-20T14:19:33;41.80;;;16.95;;
75005;SDS011;63553;51.814;4.600;2022-11-20T14:27:43;36.83;;;14.68;;
75005;SDS011;63553;51.814;4.600;2022-11-20T14:30:20;37.63;;;15.18;;
75005;SDS011;63553;51.814;4.600;2022-11-20T14:32:50;36.03;;;14.27;;
75005;SDS011;63553;51.814;4.600;2022-11-20T14:35:20;42.45;;;16.08;;
75005;SDS011;63553;51.814;4.600;2022-11-20T14:37:59;33.85;;;14.40;;
75005;SDS011;63553;51.814;4.600;2022-11-20T14:40:27;37.20;;;15.02;;
75005;SDS011;63553;51.814;4.600;2022-11-20T14:42:58;39.85;;;15.52;;
75005;SDS011;63553;51.814;4.600;2022-11-20T14:45:24;41.05;;;16.00;;
75005;SDS011;63553;51.814;4.600;2022-11-20T14:47:51;37.85;;;15.63;;
75005;SDS011;63553;51.814;4.600;2022-11-20T14:52:55;36.78;;;15.13;;
75005;SDS011;63553;51.814;4.600;2022-11-20T14:55:28;29.42;;;13.60;;
75005;SDS011;63553;51.814;4.600;2022-11-20T14:57:57;36.92;;;15.40;;
75005;SDS011;63553;51.814;4.600;2022-11-20T15:00:27;45.00;;;14.65;;
75005;SDS011;63553;51.814;4.600;2022-11-20T15:02:55;35.22;;;14.63;;
75005;SDS011;63553;51.814;4.600;2022-11-20T15:05:22;33.70;;;14.00;;
75005;SDS011;63553;51.814;4.600;2022-11-20T15:07:51;30.60;;;13.50;;
75005;SDS011;63553;51.814;4.600;2022-11-20T15:10:29;35.97;;;14.07;;
75005;SDS011;63553;51.814;4.600;2022-11-20T15:12:59;32.15;;;14.07;;
75005;SDS011;63553;51.814;4.600;2022-11-20T15:15:35;32.65;;;13.70;;
75005;SDS011;63553;51.814;4.600;2022-11-20T15:18:09;31.95;;;13.65;;
75005;SDS011;63553;51.814;4.600;2022-11-20T15:20:37;32.70;;;13.85;;
75005;SDS011;63553;51.814;4.600;2022-11-20T15:23:07;34.33;;;13.13;;
75005;SDS011;63553;51.814;4.600;2022-11-20T15:25:36;26.83;;;11.75;;
75005;SDS011;63553;51.814;4.600;2022-11-20T15:28:04;28.33;;;12.18;;
75005;SDS011;63553;51.814;4.600;2022-11-20T15:30:35;30.02;;;12.52;;
75005;SDS011;63553;51.814;4.600;2022-11-20T15:33:00;25.50;;;11.87;;
75005;SDS011;63553;51.814;4.600;2022-11-20T15:35:25;28.53;;;12.43;;
75005;SDS011;63553;51.814;4.600;2022-11-20T15:37:51;26.80;;;12.03;;
75005;SDS011;63553;51.814;4.600;2022-11-20T15:40:16;26.10;;;11.63;;
75005;SDS011;63553;51.814;4.600;2022-11-20T15:42:41;24.80;;;10.97;;
75005;SDS011;63553;51.814;4.600;2022-11-20T15:45:26;26.13;;;11.15;;
75005;SDS011;63553;51.814;4.600;2022-11-20T15:47:55;27.27;;;11.80;;
75005;SDS011;63553;51.814;4.600;2022-11-20T15:50:20;25.70;;;11.45;;
75005;SDS011;63553;51.814;4.600;2022-11-20T15:52:48;24.05;;;11.23;;
75005;SDS011;63553;51.814;4.600;2022-11-20T15:55:13;22.80;;;10.57;;
75005;SDS011;63553;51.814;4.600;2022-11-20T15:57:38;26.07;;;10.87;;
75005;SDS011;63553;51.814;4.600;2022-11-20T16:00:04;24.77;;;10.30;;
75005;SDS011;63553;51.814;4.600;2022-11-20T16:02:29;28.33;;;11.60;;
75005;SDS011;63553;51.814;4.600;2022-11-20T16:04:55;26.23;;;11.70;;
75005;SDS011;63553;51.814;4.600;2022-11-20T16:07:20;29.97;;;13.33;;
75005;SDS011;63553;51.814;4.600;2022-11-20T16:09:45;25.80;;;11.90;;
75005;SDS011;63553;51.814;4.600;2022-11-20T16:12:11;21.93;;;11.27;;
75005;SDS011;63553;51.814;4.600;2022-11-20T16:14:56;24.65;;;10.27;;
75005;SDS011;63553;51.814;4.600;2022-11-20T16:17:40;22.98;;;10.85;;
75005;SDS011;63553;51.814;4.600;2022-11-20T16:20:10;24.00;;;11.02;;
75005;SDS011;63553;51.814;4.600;2022-11-20T16:22:36;26.20;;;11.05;;
75005;SDS011;63553;51.814;4.600;2022-11-20T16:25:01;25.33;;;11.00;;
75005;SDS011;63553;51.814;4.600;2022-11-20T16:27:27;25.27;;;11.13;;
75005;SDS011;63553;51.814;4.600;2022-11-20T16:29:52;23.30;;;10.53;;
75005;SDS011;63553;51.814;4.600;2022-11-20T16:32:17;27.60;;;11.83;;
75005;SDS011;63553;51.814;4.600;2022-11-20T16:34:42;27.70;;;12.67;;
75005;SDS011;63553;51.814;4.600;2022-11-20T16:37:08;44.27;;;18.87;;
75005;SDS011;63553;51.814;4.600;2022-11-20T16:39:33;33.17;;;16.40;;
75005;SDS011;63553;51.814;4.600;2022-11-20T16:41:58;25.23;;;12.00;;
75005;SDS011;63553;51.814;4.600;2022-11-20T16:44:28;20.55;;;10.00;;
75005;SDS011;63553;51.814;4.600;2022-11-20T16:46:53;21.37;;;10.47;;